sensor_id;sensor_type;location;lat;lon;timestamp;pressure;altitude;pressure_sealevel;temperature
58929;BMP180;44713;53.378;10.022;2022-12-10T00:01:32;100600.00;;;0.30
58929;BMP180;44713;53.378;10.022;2022-12-10T00:03:58;100604.00;;;0.30
58929;BMP180;44713;53.378;10.022;2022-12-10T00:06:26;100603.00;;;0.30
58929;BMP180;44713;53.378;10.022;2022-12-10T00:08:52;100601.00;;;0.20
58929;BMP180;44713;53.378;10.022;2022-12-10T00:11:18;100603.00;;;0.20
58929;BMP180;44713;53.378;10.022;2022-12-10T00:13:46;100603.00;;;0.20
58929;BMP180;44713;53.378;10.022;2022-12-10T00:16:13;100605.00;;;0.20
58929;BMP180;44713;53.378;10.022;2022-12-10T00:18:40;100603.00;;;0.20
58929;BMP180;44713;53.378;10.022;2022-12-10T00:21:08;100606.00;;;0.20
58929;BMP180;44713;53.378;10.022;2022-12-10T00:23:35;100605.00;;;0.20
58929;BMP180;44713;53.378;10.022;2022-12-10T00:26:09;100595.00;;;0.30
58929;BMP180;44713;53.378;10.022;2022-12-10T00:28:37;100601.00;;;0.40
58929;BMP180;44713;53.378;10.022;2022-12-10T00:31:13;100603.00;;;0.40
58929;BMP180;44713;53.378;10.022;2022-12-10T00:33:39;100598.00;;;0.30
58929;BMP180;44713;53.378;10.022;2022-12-10T00:36:11;100603.00;;;0.30
58929;BMP180;44713;53.378;10.022;2022-12-10T00:38:37;100618.00;;;0.30
58929;BMP180;44713;53.378;10.022;2022-12-10T00:41:03;100609.00;;;0.40
58929;BMP180;44713;53.378;10.022;2022-12-10T00:43:29;100613.00;;;0.40
58929;BMP180;44713;53.378;10.022;2022-12-10T00:45:54;100613.00;;;0.40
58929;BMP180;44713;53.378;10.022;2022-12-10T00:48:20;100607.00;;;0.40
58929;BMP180;44713;53.378;10.022;2022-12-10T00:51:00;100613.00;;;0.40
58929;BMP180;44713;53.378;10.022;2022-12-10T00:53:27;100613.00;;;0.30
58929;BMP180;44713;53.378;10.022;2022-12-10T00:55:53;100612.00;;;0.30
58929;BMP180;44713;53.378;10.022;2022-12-10T00:58:19;100614.00;;;0.40
58929;BMP180;44713;53.378;10.022;2022-12-10T01:00:44;100616.00;;;0.40
58929;BMP180;44713;53.378;10.022;2022-12-10T01:03:09;100614.00;;;0.30
58929;BMP180;44713;53.378;10.022;2022-12-10T01:05:35;100622.00;;;0.40
58929;BMP180;44713;53.378;10.022;2022-12-10T01:08:00;100617.00;;;0.40
58929;BMP180;44713;53.378;10.022;2022-12-10T01:10:26;100611.00;;;0.40
58929;BMP180;44713;53.378;10.022;2022-12-10T01:12:51;100608.00;;;0.40
58929;BMP180;44713;53.378;10.022;2022-12-10T01:15:16;100611.00;;;0.40
58929;BMP180;44713;53.378;10.022;2022-12-10T01:17:43;100618.00;;;0.50
58929;BMP180;44713;53.378;10.022;2022-12-10T01:20:09;100613.00;;;0.50
58929;BMP180;44713;53.378;10.022;2022-12-10T01:22:34;100625.00;;;0.40
58929;BMP180;44713;53.378;10.022;2022-12-10T01:25:00;100630.00;;;0.40
58929;BMP180;44713;53.378;10.022;2022-12-10T01:27:26;100630.00;;;0.40
58929;BMP180;44713;53.378;10.022;2022-12-10T01:29:52;100626.00;;;0.40
58929;BMP180;44713;53.378;10.022;2022-12-10T01:32:17;100637.00;;;0.40
58929;BMP180;44713;53.378;10.022;2022-12-10T01:34:43;100631.00;;;0.40
58929;BMP180;44713;53.378;10.022;2022-12-10T01:37:08;100630.00;;;0.40
58929;BMP180;44713;53.378;10.022;2022-12-10T01:39:33;100639.00;;;0.40
58929;BMP180;44713;53.378;10.022;2022-12-10T01:41:59;100633.00;;;0.40
58929;BMP180;44713;53.378;10.022;2022-12-10T01:46:53;100631.00;;;0.40
58929;BMP180;44713;53.378;10.022;2022-12-10T01:49:21;100632.00;;;0.40
58929;BMP180;44713;53.378;10.022;2022-12-10T01:51:51;100632.00;;;0.40
58929;BMP180;44713;53.378;10.022;2022-12-10T01:54:19;100637.00;;;0.40
58929;BMP180;44713;53.378;10.022;2022-12-10T01:56:48;100636.00;;;0.40
58929;BMP180;44713;53.378;10.022;2022-12-10T01:59:15;100636.00;;;0.50
58929;BMP180;44713;53.378;10.022;2022-12-10T02:07:02;100644.00;;;0.50
58929;BMP180;44713;53.378;10.022;2022-12-10T02:09:48;100643.00;;;0.40
58929;BMP180;44713;53.378;10.022;2022-12-10T02:12:23;100648.00;;;0.50
58929;BMP180;44713;53.378;10.022;2022-12-10T02:17:19;100650.00;;;0.50
58929;BMP180;44713;53.378;10.022;2022-12-10T02:20:03;100644.00;;;0.50
58929;BMP180;44713;53.378;10.022;2022-12-10T02:22:35;100648.00;;;0.50
58929;BMP180;44713;53.378;10.022;2022-12-10T02:25:04;100649.00;;;0.50
58929;BMP180;44713;53.378;10.022;2022-12-10T02:30:24;100644.00;;;0.40
58929;BMP180;44713;53.378;10.022;2022-12-10T02:32:50;100646.00;;;0.40
58929;BMP180;44713;53.378;10.022;2022-12-10T02:35:25;100649.00;;;0.50
58929;BMP180;44713;53.378;10.022;2022-12-10T02:38:05;100647.00;;;0.50
58929;BMP180;44713;53.378;10.022;2022-12-10T02:40:33;100644.00;;;0.40
58929;BMP180;44713;53.378;10.022;2022-12-10T02:43:02;100638.00;;;0.30
58929;BMP180;44713;53.378;10.022;2022-12-10T02:45:29;100649.00;;;0.40
58929;BMP180;44713;53.378;10.022;2022-12-10T02:47:59;100644.00;;;0.40
58929;BMP180;44713;53.378;10.022;2022-12-10T02:50:33;100653.00;;;0.30
58929;BMP180;44713;53.378;10.022;2022-12-10T02:52:58;100644.00;;;0.30
58929;BMP180;44713;53.378;10.022;2022-12-10T02:55:24;100657.00;;;0.30
58929;BMP180;44713;53.378;10.022;2022-12-10T02:58:10;100654.00;;;0.40
58929;BMP180;44713;53.378;10.022;2022-12-10T03:00:53;100655.00;;;0.40
58929;BMP180;44713;53.378;10.022;2022-12-10T03:03:32;100658.00;;;0.50
58929;BMP180;44713;53.378;10.022;2022-12-10T03:09:22;100658.00;;;0.50
58929;BMP180;44713;53.378;10.022;2022-12-10T03:11:52;100661.00;;;0.50
58929;BMP180;44713;53.378;10.022;2022-12-10T03:14:27;100651.00;;;0.50
58929;BMP180;44713;53.378;10.022;2022-12-10T03:16:56;100661.00;;;0.60
58929;BMP180;44713;53.378;10.022;2022-12-10T03:19:24;100649.00;;;0.60
58929;BMP180;44713;53.378;10.022;2022-12-10T03:21:51;100651.00;;;0.60
58929;BMP180;44713;53.378;10.022;2022-12-10T03:24:18;100656.00;;;0.60
58929;BMP180;44713;53.378;10.022;2022-12-10T03:26:47;100656.00;;;0.60
58929;BMP180;44713;53.378;10.022;2022-12-10T03:29:29;100648.00;;;0.60
58929;BMP180;44713;53.378;10.022;2022-12-10T03:31:55;100653.00;;;0.60
58929;BMP180;44713;53.378;10.022;2022-12-10T03:34:22;100654.00;;;0.60
58929;BMP180;44713;53.378;10.022;2022-12-10T03:36:48;100658.00;;;0.60
58929;BMP180;44713;53.378;10.022;2022-12-10T03:39:14;100658.00;;;0.60
58929;BMP180;44713;53.378;10.022;2022-12-10T03:41:40;100656.00;;;0.70
58929;BMP180;44713;53.378;10.022;2022-12-10T03:44:05;100658.00;;;0.70
58929;BMP180;44713;53.378;10.022;2022-12-10T03:46:31;100667.00;;;0.60
58929;BMP180;44713;53.378;10.022;2022-12-10T03:48:57;100655.00;;;0.60
58929;BMP180;44713;53.378;10.022;2022-12-10T03:51:23;100658.00;;;0.60
58929;BMP180;44713;53.378;10.022;2022-12-10T03:53:49;100668.00;;;0.60
58929;BMP180;44713;53.378;10.022;2022-12-10T03:56:15;100668.00;;;0.60
58929;BMP180;44713;53.378;10.022;2022-12-10T03:58:41;100658.00;;;0.60
58929;BMP180;44713;53.378;10.022;2022-12-10T04:01:07;100650.00;;;0.60
58929;BMP180;44713;53.378;10.022;2022-12-10T04:03:36;100656.00;;;0.60
58929;BMP180;44713;53.378;10.022;2022-12-10T04:06:04;100659.00;;;0.60
58929;BMP180;44713;53.378;10.022;2022-12-10T04:08:30;100653.00;;;0.60
58929;BMP180;44713;53.378;10.022;2022-12-10T04:11:04;100656.00;;;0.60
58929;BMP180;44713;53.378;10.022;2022-12-10T04:13:32;100648.00;;;0.40
58929;BMP180;44713;53.378;10.022;2022-12-10T04:16:16;100645.00;;;0.50
58929;BMP180;44713;53.378;10.022;2022-12-10T04:18:56;100655.00;;;0.40
58929;BMP180;44713;53.378;10.022;2022-12-10T04:21:22;100648.00;;;0.40
58929;BMP180;44713;53.378;10.022;2022-12-10T04:24:08;100652.00;;;0.40
58929;BMP180;44713;53.378;10.022;2022-12-10T04:26:52;100654.00;;;0.40
58929;BMP180;44713;53.378;10.022;2022-12-10T04:29:26;100655.00;;;0.40
58929;BMP180;44713;53.378;10.022;2022-12-10T04:31:52;100655.00;;;0.40
58929;BMP180;44713;53.378;10.022;2022-12-10T04:34:18;100655.00;;;0.50
58929;BMP180;44713;53.378;10.022;2022-12-10T04:36:43;100652.00;;;0.50
58929;BMP180;44713;53.378;10.022;2022-12-10T04:39:08;100650.00;;;0.40
58929;BMP180;44713;53.378;10.022;2022-12-10T04:41:40;100646.00;;;0.40
58929;BMP180;44713;53.378;10.022;2022-12-10T04:44:06;100649.00;;;0.30
58929;BMP180;44713;53.378;10.022;2022-12-10T04:46:31;100653.00;;;0.40
58929;BMP180;44713;53.378;10.022;2022-12-10T04:48:56;100649.00;;;0.40
58929;BMP180;44713;53.378;10.022;2022-12-10T04:51:22;100652.00;;;0.30
58929;BMP180;44713;53.378;10.022;2022-12-10T04:53:47;100651.00;;;0.30
58929;BMP180;44713;53.378;10.022;2022-12-10T04:56:12;100653.00;;;0.30
58929;BMP180;44713;53.378;10.022;2022-12-10T04:58:38;100651.00;;;0.30
58929;BMP180;44713;53.378;10.022;2022-12-10T05:01:04;100649.00;;;0.40
58929;BMP180;44713;53.378;10.022;2022-12-10T05:03:30;100651.00;;;0.40
58929;BMP180;44713;53.378;10.022;2022-12-10T05:06:03;100659.00;;;0.40
58929;BMP180;44713;53.378;10.022;2022-12-10T05:08:29;100667.00;;;0.30
58929;BMP180;44713;53.378;10.022;2022-12-10T05:10:59;100662.00;;;0.30
58929;BMP180;44713;53.378;10.022;2022-12-10T05:13:25;100657.00;;;0.40
58929;BMP180;44713;53.378;10.022;2022-12-10T05:15:50;100661.00;;;0.30
58929;BMP180;44713;53.378;10.022;2022-12-10T05:18:16;100666.00;;;0.40
58929;BMP180;44713;53.378;10.022;2022-12-10T05:20:41;100672.00;;;0.50
58929;BMP180;44713;53.378;10.022;2022-12-10T05:23:08;100663.00;;;0.50
58929;BMP180;44713;53.378;10.022;2022-12-10T05:25:58;100666.00;;;0.50
58929;BMP180;44713;53.378;10.022;2022-12-10T05:28:24;100654.00;;;0.50
58929;BMP180;44713;53.378;10.022;2022-12-10T05:30:49;100659.00;;;0.60
58929;BMP180;44713;53.378;10.022;2022-12-10T05:33:15;100666.00;;;0.60
58929;BMP180;44713;53.378;10.022;2022-12-10T05:35:40;100671.00;;;0.60
58929;BMP180;44713;53.378;10.022;2022-12-10T05:38:06;100660.00;;;0.60
58929;BMP180;44713;53.378;10.022;2022-12-10T05:40:36;100662.00;;;0.60
58929;BMP180;44713;53.378;10.022;2022-12-10T05:43:02;100661.00;;;0.60
58929;BMP180;44713;53.378;10.022;2022-12-10T05:45:27;100663.00;;;0.60
58929;BMP180;44713;53.378;10.022;2022-12-10T05:47:53;100667.00;;;0.60
58929;BMP180;44713;53.378;10.022;2022-12-10T05:50:18;100663.00;;;0.60
58929;BMP180;44713;53.378;10.022;2022-12-10T05:52:43;100665.00;;;0.60
58929;BMP180;44713;53.378;10.022;2022-12-10T05:55:09;100673.00;;;0.60
58929;BMP180;44713;53.378;10.022;2022-12-10T05:57:36;100667.00;;;0.60
58929;BMP180;44713;53.378;10.022;2022-12-10T06:00:03;100673.00;;;0.60
58929;BMP180;44713;53.378;10.022;2022-12-10T06:02:37;100656.00;;;0.60
58929;BMP180;44713;53.378;10.022;2022-12-10T06:05:02;100671.00;;;0.60
58929;BMP180;44713;53.378;10.022;2022-12-10T06:07:29;100676.00;;;0.50
58929;BMP180;44713;53.378;10.022;2022-12-10T06:09:54;100683.00;;;0.50
58929;BMP180;44713;53.378;10.022;2022-12-10T06:12:20;100669.00;;;0.50
58929;BMP180;44713;53.378;10.022;2022-12-10T06:14:46;100676.00;;;0.40
58929;BMP180;44713;53.378;10.022;2022-12-10T06:17:11;100674.00;;;0.50
58929;BMP180;44713;53.378;10.022;2022-12-10T06:19:37;100683.00;;;0.50
58929;BMP180;44713;53.378;10.022;2022-12-10T06:22:02;100680.00;;;0.50
58929;BMP180;44713;53.378;10.022;2022-12-10T06:24:28;100684.00;;;0.50
58929;BMP180;44713;53.378;10.022;2022-12-10T06:26:54;100691.00;;;0.60
58929;BMP180;44713;53.378;10.022;2022-12-10T06:29:19;100693.00;;;0.50
58929;BMP180;44713;53.378;10.022;2022-12-10T06:31:45;100687.00;;;0.50
58929;BMP180;44713;53.378;10.022;2022-12-10T06:34:10;100683.00;;;0.50
58929;BMP180;44713;53.378;10.022;2022-12-10T06:36:37;100690.00;;;0.50
58929;BMP180;44713;53.378;10.022;2022-12-10T06:39:02;100677.00;;;0.50
58929;BMP180;44713;53.378;10.022;2022-12-10T06:41:28;100687.00;;;0.50
58929;BMP180;44713;53.378;10.022;2022-12-10T06:43:53;100697.00;;;0.50
58929;BMP180;44713;53.378;10.022;2022-12-10T06:46:20;100685.00;;;0.50
58929;BMP180;44713;53.378;10.022;2022-12-10T06:48:46;100683.00;;;0.50
58929;BMP180;44713;53.378;10.022;2022-12-10T06:51:13;100696.00;;;0.50
58929;BMP180;44713;53.378;10.022;2022-12-10T06:53:39;100698.00;;;0.40
58929;BMP180;44713;53.378;10.022;2022-12-10T06:56:06;100696.00;;;0.40
58929;BMP180;44713;53.378;10.022;2022-12-10T06:58:33;100708.00;;;0.50
58929;BMP180;44713;53.378;10.022;2022-12-10T07:01:06;100704.00;;;0.50
58929;BMP180;44713;53.378;10.022;2022-12-10T07:03:32;100712.00;;;0.50
58929;BMP180;44713;53.378;10.022;2022-12-10T07:05:58;100717.00;;;0.40
58929;BMP180;44713;53.378;10.022;2022-12-10T07:08:24;100714.00;;;0.40
58929;BMP180;44713;53.378;10.022;2022-12-10T07:10:49;100719.00;;;0.40
58929;BMP180;44713;53.378;10.022;2022-12-10T07:13:15;100713.00;;;0.40
58929;BMP180;44713;53.378;10.022;2022-12-10T07:15:41;100718.00;;;0.40
58929;BMP180;44713;53.378;10.022;2022-12-10T07:18:06;100719.00;;;0.40
58929;BMP180;44713;53.378;10.022;2022-12-10T07:20:31;100722.00;;;0.40
58929;BMP180;44713;53.378;10.022;2022-12-10T07:22:57;100729.00;;;0.40
58929;BMP180;44713;53.378;10.022;2022-12-10T07:25:22;100738.00;;;0.40
58929;BMP180;44713;53.378;10.022;2022-12-10T07:27:47;100734.00;;;0.40
58929;BMP180;44713;53.378;10.022;2022-12-10T07:30:13;100731.00;;;0.40
58929;BMP180;44713;53.378;10.022;2022-12-10T07:32:38;100734.00;;;0.40
58929;BMP180;44713;53.378;10.022;2022-12-10T07:35:04;100737.00;;;0.40
58929;BMP180;44713;53.378;10.022;2022-12-10T07:37:29;100740.00;;;0.50
58929;BMP180;44713;53.378;10.022;2022-12-10T07:39:55;100743.00;;;0.50
58929;BMP180;44713;53.378;10.022;2022-12-10T07:42:20;100734.00;;;0.50
58929;BMP180;44713;53.378;10.022;2022-12-10T07:44:47;100745.00;;;0.40
58929;BMP180;44713;53.378;10.022;2022-12-10T07:47:13;100742.00;;;0.40
58929;BMP180;44713;53.378;10.022;2022-12-10T07:49:38;100744.00;;;0.50
58929;BMP180;44713;53.378;10.022;2022-12-10T07:52:03;100752.00;;;0.50
58929;BMP180;44713;53.378;10.022;2022-12-10T07:54:29;100754.00;;;0.40
58929;BMP180;44713;53.378;10.022;2022-12-10T07:56:54;100744.00;;;0.40
58929;BMP180;44713;53.378;10.022;2022-12-10T07:59:20;100752.00;;;0.40
58929;BMP180;44713;53.378;10.022;2022-12-10T08:01:45;100746.00;;;0.40
58929;BMP180;44713;53.378;10.022;2022-12-10T08:04:10;100753.00;;;0.40
58929;BMP180;44713;53.378;10.022;2022-12-10T08:06:36;100752.00;;;0.40
58929;BMP180;44713;53.378;10.022;2022-12-10T08:09:01;100754.00;;;0.40
58929;BMP180;44713;53.378;10.022;2022-12-10T08:11:27;100755.00;;;0.50
58929;BMP180;44713;53.378;10.022;2022-12-10T08:13:53;100751.00;;;0.40
58929;BMP180;44713;53.378;10.022;2022-12-10T08:16:21;100757.00;;;0.30
58929;BMP180;44713;53.378;10.022;2022-12-10T08:18:55;100769.00;;;0.30
58929;BMP180;44713;53.378;10.022;2022-12-10T08:21:23;100764.00;;;0.30
58929;BMP180;44713;53.378;10.022;2022-12-10T08:23:49;100761.00;;;0.30
58929;BMP180;44713;53.378;10.022;2022-12-10T08:26:18;100773.00;;;0.30
58929;BMP180;44713;53.378;10.022;2022-12-10T08:28:45;100772.00;;;0.40
58929;BMP180;44713;53.378;10.022;2022-12-10T08:31:11;100768.00;;;0.40
58929;BMP180;44713;53.378;10.022;2022-12-10T08:33:38;100775.00;;;0.40
58929;BMP180;44713;53.378;10.022;2022-12-10T08:36:05;100775.00;;;0.30
58929;BMP180;44713;53.378;10.022;2022-12-10T08:38:31;100770.00;;;0.30
58929;BMP180;44713;53.378;10.022;2022-12-10T08:40:57;100768.00;;;0.30
58929;BMP180;44713;53.378;10.022;2022-12-10T08:43:23;100777.00;;;0.40
58929;BMP180;44713;53.378;10.022;2022-12-10T08:45:48;100785.00;;;0.40
58929;BMP180;44713;53.378;10.022;2022-12-10T08:48:14;100794.00;;;0.40
58929;BMP180;44713;53.378;10.022;2022-12-10T08:50:39;100794.00;;;0.30
58929;BMP180;44713;53.378;10.022;2022-12-10T08:53:05;100793.00;;;0.30
58929;BMP180;44713;53.378;10.022;2022-12-10T08:55:30;100790.00;;;0.30
58929;BMP180;44713;53.378;10.022;2022-12-10T08:57:56;100785.00;;;0.40
58929;BMP180;44713;53.378;10.022;2022-12-10T09:00:22;100789.00;;;0.40
58929;BMP180;44713;53.378;10.022;2022-12-10T09:02:49;100792.00;;;0.40
58929;BMP180;44713;53.378;10.022;2022-12-10T09:05:15;100797.00;;;0.40
58929;BMP180;44713;53.378;10.022;2022-12-10T09:07:40;100796.00;;;0.40
58929;BMP180;44713;53.378;10.022;2022-12-10T09:10:06;100797.00;;;0.40
58929;BMP180;44713;53.378;10.022;2022-12-10T09:12:33;100806.00;;;0.50
58929;BMP180;44713;53.378;10.022;2022-12-10T09:14:59;100809.00;;;0.40
58929;BMP180;44713;53.378;10.022;2022-12-10T09:17:25;100807.00;;;0.40
58929;BMP180;44713;53.378;10.022;2022-12-10T09:19:50;100809.00;;;0.50
58929;BMP180;44713;53.378;10.022;2022-12-10T09:22:15;100812.00;;;0.50
58929;BMP180;44713;53.378;10.022;2022-12-10T09:24:40;100817.00;;;0.40
58929;BMP180;44713;53.378;10.022;2022-12-10T09:27:06;100814.00;;;0.50
58929;BMP180;44713;53.378;10.022;2022-12-10T09:29:31;100813.00;;;0.40
58929;BMP180;44713;53.378;10.022;2022-12-10T09:31:56;100817.00;;;0.40
58929;BMP180;44713;53.378;10.022;2022-12-10T09:34:22;100821.00;;;0.40
58929;BMP180;44713;53.378;10.022;2022-12-10T09:36:47;100819.00;;;0.30
58929;BMP180;44713;53.378;10.022;2022-12-10T09:39:13;100814.00;;;0.30
58929;BMP180;44713;53.378;10.022;2022-12-10T09:47:01;100823.00;;;0.50
58929;BMP180;44713;53.378;10.022;2022-12-10T09:52:20;100814.00;;;0.30
58929;BMP180;44713;53.378;10.022;2022-12-10T09:54:53;100822.00;;;0.30
58929;BMP180;44713;53.378;10.022;2022-12-10T09:57:25;100811.00;;;0.30
58929;BMP180;44713;53.378;10.022;2022-12-10T09:59:52;100812.00;;;0.30
58929;BMP180;44713;53.378;10.022;2022-12-10T10:02:28;100815.00;;;0.30
58929;BMP180;44713;53.378;10.022;2022-12-10T10:05:05;100805.00;;;0.30
58929;BMP180;44713;53.378;10.022;2022-12-10T10:07:33;100815.00;;;0.30
58929;BMP180;44713;53.378;10.022;2022-12-10T10:10:04;100823.00;;;0.30
58929;BMP180;44713;53.378;10.022;2022-12-10T10:12:33;100813.00;;;0.40
58929;BMP180;44713;53.378;10.022;2022-12-10T10:15:10;100810.00;;;0.40
58929;BMP180;44713;53.378;10.022;2022-12-10T10:17:38;100815.00;;;0.30
58929;BMP180;44713;53.378;10.022;2022-12-10T10:20:04;100813.00;;;0.40
58929;BMP180;44713;53.378;10.022;2022-12-10T10:22:30;100810.00;;;0.30
58929;BMP180;44713;53.378;10.022;2022-12-10T10:24:56;100816.00;;;0.40
58929;BMP180;44713;53.378;10.022;2022-12-10T10:27:24;100808.00;;;0.50
58929;BMP180;44713;53.378;10.022;2022-12-10T10:29:52;100812.00;;;0.40
58929;BMP180;44713;53.378;10.022;2022-12-10T10:32:22;100816.00;;;0.40
58929;BMP180;44713;53.378;10.022;2022-12-10T10:35:00;100815.00;;;0.30
58929;BMP180;44713;53.378;10.022;2022-12-10T10:37:29;100822.00;;;0.20
58929;BMP180;44713;53.378;10.022;2022-12-10T10:39:56;100818.00;;;0.30
58929;BMP180;44713;53.378;10.022;2022-12-10T10:42:27;100819.00;;;0.30
58929;BMP180;44713;53.378;10.022;2022-12-10T10:44:53;100822.00;;;0.30
58929;BMP180;44713;53.378;10.022;2022-12-10T10:47:33;100821.00;;;0.40
58929;BMP180;44713;53.378;10.022;2022-12-10T10:49:58;100821.00;;;0.50
58929;BMP180;44713;53.378;10.022;2022-12-10T10:52:28;100822.00;;;0.50
58929;BMP180;44713;53.378;10.022;2022-12-10T10:54:54;100816.00;;;0.50
58929;BMP180;44713;53.378;10.022;2022-12-10T10:57:36;100824.00;;;0.50
58929;BMP180;44713;53.378;10.022;2022-12-10T11:00:19;100817.00;;;0.60
58929;BMP180;44713;53.378;10.022;2022-12-10T11:02:45;100817.00;;;0.60
58929;BMP180;44713;53.378;10.022;2022-12-10T11:05:23;100817.00;;;0.60
58929;BMP180;44713;53.378;10.022;2022-12-10T11:08:05;100812.00;;;0.60
58929;BMP180;44713;53.378;10.022;2022-12-10T11:10:33;100809.00;;;0.60
58929;BMP180;44713;53.378;10.022;2022-12-10T11:13:04;100809.00;;;0.60
58929;BMP180;44713;53.378;10.022;2022-12-10T11:15:36;100806.00;;;0.70
58929;BMP180;44713;53.378;10.022;2022-12-10T11:18:09;100801.00;;;0.70
58929;BMP180;44713;53.378;10.022;2022-12-10T11:21:17;100817.00;;;0.60
58929;BMP180;44713;53.378;10.022;2022-12-10T11:23:44;100807.00;;;0.60
58929;BMP180;44713;53.378;10.022;2022-12-10T11:26:33;100802.00;;;0.60
58929;BMP180;44713;53.378;10.022;2022-12-10T11:32:06;100801.00;;;0.60
58929;BMP180;44713;53.378;10.022;2022-12-10T11:47:43;100804.00;;;0.60
58929;BMP180;44713;53.378;10.022;2022-12-10T11:50:24;100801.00;;;0.60
58929;BMP180;44713;53.378;10.022;2022-12-10T11:58:58;100808.00;;;0.70
58929;BMP180;44713;53.378;10.022;2022-12-10T12:01:58;100801.00;;;0.70
58929;BMP180;44713;53.378;10.022;2022-12-10T12:04:48;100805.00;;;0.70
58929;BMP180;44713;53.378;10.022;2022-12-10T12:07:30;100797.00;;;0.70
58929;BMP180;44713;53.378;10.022;2022-12-10T12:10:20;100797.00;;;0.70
58929;BMP180;44713;53.378;10.022;2022-12-10T12:13:01;100799.00;;;0.70
58929;BMP180;44713;53.378;10.022;2022-12-10T12:15:32;100801.00;;;0.70
58929;BMP180;44713;53.378;10.022;2022-12-10T12:18:16;100792.00;;;0.70
58929;BMP180;44713;53.378;10.022;2022-12-10T12:20:52;100792.00;;;0.80
58929;BMP180;44713;53.378;10.022;2022-12-10T12:23:28;100796.00;;;0.70
58929;BMP180;44713;53.378;10.022;2022-12-10T12:26:03;100796.00;;;0.70
58929;BMP180;44713;53.378;10.022;2022-12-10T12:28:47;100789.00;;;0.70
58929;BMP180;44713;53.378;10.022;2022-12-10T12:31:21;100787.00;;;0.60
58929;BMP180;44713;53.378;10.022;2022-12-10T12:33:51;100796.00;;;0.70
58929;BMP180;44713;53.378;10.022;2022-12-10T12:36:21;100797.00;;;0.70
58929;BMP180;44713;53.378;10.022;2022-12-10T12:39:15;100797.00;;;0.60
58929;BMP180;44713;53.378;10.022;2022-12-10T12:41:55;100794.00;;;0.60
58929;BMP180;44713;53.378;10.022;2022-12-10T12:44:32;100793.00;;;0.60
58929;BMP180;44713;53.378;10.022;2022-12-10T12:47:11;100801.00;;;0.60
58929;BMP180;44713;53.378;10.022;2022-12-10T12:49:42;100802.00;;;0.60
58929;BMP180;44713;53.378;10.022;2022-12-10T12:55:04;100798.00;;;0.60
58929;BMP180;44713;53.378;10.022;2022-12-10T12:57:45;100804.00;;;0.60
58929;BMP180;44713;53.378;10.022;2022-12-10T13:00:15;100797.00;;;0.60
58929;BMP180;44713;53.378;10.022;2022-12-10T13:03:19;100801.00;;;0.60
58929;BMP180;44713;53.378;10.022;2022-12-10T13:05:46;100790.00;;;0.70
58929;BMP180;44713;53.378;10.022;2022-12-10T13:10:51;100796.00;;;0.70
58929;BMP180;44713;53.378;10.022;2022-12-10T13:15:53;100804.00;;;0.60
58929;BMP180;44713;53.378;10.022;2022-12-10T13:18:34;100803.00;;;0.60
58929;BMP180;44713;53.378;10.022;2022-12-10T13:21:28;100803.00;;;0.60
58929;BMP180;44713;53.378;10.022;2022-12-10T13:24:06;100803.00;;;0.60
58929;BMP180;44713;53.378;10.022;2022-12-10T13:26:32;100814.00;;;0.60
58929;BMP180;44713;53.378;10.022;2022-12-10T13:29:43;100821.00;;;0.60
58929;BMP180;44713;53.378;10.022;2022-12-10T13:32:22;100816.00;;;0.70
58929;BMP180;44713;53.378;10.022;2022-12-10T13:37:34;100819.00;;;0.70
58929;BMP180;44713;53.378;10.022;2022-12-10T13:42:38;100813.00;;;0.60
58929;BMP180;44713;53.378;10.022;2022-12-10T13:50:45;100832.00;;;0.60
58929;BMP180;44713;53.378;10.022;2022-12-10T13:56:13;100847.00;;;0.60
58929;BMP180;44713;53.378;10.022;2022-12-10T14:07:26;100847.00;;;0.70
58929;BMP180;44713;53.378;10.022;2022-12-10T14:09:54;100835.00;;;0.70
58929;BMP180;44713;53.378;10.022;2022-12-10T14:12:26;100836.00;;;0.70
58929;BMP180;44713;53.378;10.022;2022-12-10T14:14:55;100835.00;;;0.60
58929;BMP180;44713;53.378;10.022;2022-12-10T14:17:24;100836.00;;;0.50
58929;BMP180;44713;53.378;10.022;2022-12-10T14:19:56;100845.00;;;0.50
58929;BMP180;44713;53.378;10.022;2022-12-10T14:24:59;100844.00;;;0.60
58929;BMP180;44713;53.378;10.022;2022-12-10T14:27:26;100846.00;;;0.60
58929;BMP180;44713;53.378;10.022;2022-12-10T14:29:58;100844.00;;;0.60
58929;BMP180;44713;53.378;10.022;2022-12-10T14:32:29;100844.00;;;0.60
58929;BMP180;44713;53.378;10.022;2022-12-10T14:34:58;100844.00;;;0.60
58929;BMP180;44713;53.378;10.022;2022-12-10T14:37:27;100845.00;;;0.70
58929;BMP180;44713;53.378;10.022;2022-12-10T14:39:53;100850.00;;;0.70
58929;BMP180;44713;53.378;10.022;2022-12-10T14:42:18;100856.00;;;0.70
58929;BMP180;44713;53.378;10.022;2022-12-10T14:44:45;100854.00;;;0.70
58929;BMP180;44713;53.378;10.022;2022-12-10T14:47:20;100854.00;;;0.60
58929;BMP180;44713;53.378;10.022;2022-12-10T14:49:48;100850.00;;;0.70
58929;BMP180;44713;53.378;10.022;2022-12-10T14:52:25;100856.00;;;0.70
58929;BMP180;44713;53.378;10.022;2022-12-10T14:54:57;100864.00;;;0.70
58929;BMP180;44713;53.378;10.022;2022-12-10T14:57:29;100862.00;;;0.70
58929;BMP180;44713;53.378;10.022;2022-12-10T15:02:30;100864.00;;;0.60
58929;BMP180;44713;53.378;10.022;2022-12-10T15:04:57;100861.00;;;0.60
58929;BMP180;44713;53.378;10.022;2022-12-10T15:07:25;100857.00;;;0.70
58929;BMP180;44713;53.378;10.022;2022-12-10T15:09:52;100859.00;;;0.70
58929;BMP180;44713;53.378;10.022;2022-12-10T15:12:30;100862.00;;;0.70
58929;BMP180;44713;53.378;10.022;2022-12-10T15:15:02;100865.00;;;0.70
58929;BMP180;44713;53.378;10.022;2022-12-10T15:17:37;100877.00;;;0.70
58929;BMP180;44713;53.378;10.022;2022-12-10T15:20:10;100867.00;;;0.70
58929;BMP180;44713;53.378;10.022;2022-12-10T15:22:43;100870.00;;;0.60
58929;BMP180;44713;53.378;10.022;2022-12-10T15:25:19;100877.00;;;0.60
58929;BMP180;44713;53.378;10.022;2022-12-10T15:27:56;100879.00;;;0.60
58929;BMP180;44713;53.378;10.022;2022-12-10T15:30:24;100886.00;;;0.60
58929;BMP180;44713;53.378;10.022;2022-12-10T15:32:50;100885.00;;;0.60